»·PEaware :: N64SB KLAS-L35

N64SB :: KLAS-L35

FLIGHT INFORMATION

Flight Status: Arrived
Operator: Privately registered:
United States
More flights under this callsign
Pilot: Matthew M. (8235)
Aircraft: Unknown
(PIPA)
More flights by this aircraft type
Origin: KLAS McCarran Intl
United States
Destination: L35 Big Bear City
United States
More flights between these airports :: More routes between these airports
Route: +BLD GFS HEC OKACO
File this flight plan on PilotEdge
Remarks:
Altitude:
(Current/Filed)
16,000ft
Speed:
(Current/Filed)
220kts
Departed: 24-Mar-17 02:25 PM
Arrived: 24-Mar-17 03:31 PM
Distance/Time
Traveled:
137nm/1:06
Distance/Time
To Go:
Arrived

Flight Plot

Page will automatically refresh every two minutes.

Flight plan parsing failed; only flown route is shown


Map Options




Map Legend


Flown Route
Filed Route
Departure Airport
Arrival Airport
Navaid (VOR, NDB)
Fix

Horizontal Profiles

Position Reports

Time Latitude Longitude Heading Altitude Ground
Speed
24-Mar-17 14:00 36.098822 -115.159999 114 2096ft 0kts
24-Mar-17 14:01 36.098822 -115.159999 114 2096ft 0kts
24-Mar-17 14:02 36.098822 -115.159999 114 2096ft 0kts
24-Mar-17 14:03 36.098822 -115.159999 114 2096ft 0kts
24-Mar-17 14:04 36.098822 -115.159999 114 2096ft 0kts
24-Mar-17 14:05 36.098822 -115.159999 114 2096ft 0kts
24-Mar-17 14:06 36.098822 -115.159999 114 2096ft 0kts
24-Mar-17 14:07 36.098822 -115.159999 114 2096ft 0kts
24-Mar-17 14:08 36.098822 -115.159999 114 2096ft 0kts
24-Mar-17 14:09 36.098822 -115.159999 114 2096ft 0kts
24-Mar-17 14:10 36.098822 -115.159999 114 2096ft 0kts
24-Mar-17 14:11 36.098822 -115.159999 114 2096ft 0kts
24-Mar-17 14:12 36.098822 -115.159999 114 2096ft 0kts
24-Mar-17 14:13 36.098797 -115.159935 117 2096ft 4kts
24-Mar-17 14:14 36.095167 -115.161309 199 2108ft 12kts
24-Mar-17 14:15 36.091085 -115.163654 204 2125ft 18kts
24-Mar-17 14:16 36.086407 -115.166264 204 2145ft 16kts
24-Mar-17 14:17 36.082881 -115.168404 203 2160ft 14kts
24-Mar-17 14:18 36.078833 -115.170729 202 2172ft 12kts
24-Mar-17 14:19 36.077250 -115.171235 181 2177ft 0kts
24-Mar-17 14:20 36.077250 -115.171235 181 2177ft 0kts
24-Mar-17 14:21 36.077250 -115.171235 181 2177ft 0kts
24-Mar-17 14:22 36.077250 -115.171235 181 2177ft 0kts
24-Mar-17 14:23 36.077250 -115.171235 181 2177ft 0kts
24-Mar-17 14:24 36.077250 -115.171235 181 2177ft 0kts
24-Mar-17 14:25 36.076373 -115.170891 98 2178ft 19kts
24-Mar-17 14:26 36.069805 -115.135677 111 3359ft 115kts
24-Mar-17 14:27 36.058872 -115.106988 110 4680ft 116kts
24-Mar-17 14:28 36.041697 -115.061338 111 5782ft 124kts
24-Mar-17 14:29 36.027497 -115.023767 111 7234ft 125kts
24-Mar-17 14:30 36.006052 -114.994944 197 8551ft 126kts
24-Mar-17 14:31 35.980657 -115.009997 211 9603ft 124kts
24-Mar-17 14:32 35.950061 -115.028105 211 10809ft 123kts
24-Mar-17 14:33 35.914381 -115.048663 211 12122ft 122kts
24-Mar-17 14:34 35.890062 -115.062421 211 12941ft 123kts
24-Mar-17 14:35 35.859122 -115.079595 211 13915ft 124kts
24-Mar-17 14:36 35.827893 -115.096617 211 14832ft 125kts
24-Mar-17 14:37 35.796479 -115.113482 211 15719ft 125kts
24-Mar-17 14:38 35.761883 -115.132501 211 16048ft 159kts
24-Mar-17 14:39 35.719124 -115.157758 211 16045ft 182kts
24-Mar-17 14:40 35.673726 -115.185217 211 16044ft 185kts
24-Mar-17 14:41 35.628919 -115.212549 211 16044ft 184kts
24-Mar-17 14:42 35.583789 -115.240081 211 16044ft 183kts
24-Mar-17 14:43 35.538670 -115.267521 209 16043ft 184kts
24-Mar-17 14:44 35.486613 -115.257129 176 16081ft 195kts
24-Mar-17 14:45 35.433740 -115.245636 176 16081ft 196kts
24-Mar-17 14:46 35.380811 -115.233727 176 16081ft 196kts
24-Mar-17 14:47 35.327891 -115.221625 175 16076ft 196kts
24-Mar-17 14:48 35.274291 -115.209277 175 16064ft 196kts
24-Mar-17 14:49 35.237296 -115.233038 248 16055ft 176kts
24-Mar-17 14:50 35.217701 -115.287040 247 16059ft 176kts
24-Mar-17 14:51 35.198108 -115.341028 247 16064ft 175kts
24-Mar-17 14:52 35.178581 -115.394844 247 16069ft 175kts
24-Mar-17 14:53 35.159027 -115.448748 247 16073ft 175kts
24-Mar-17 14:54 35.139470 -115.502677 247 16076ft 175kts
24-Mar-17 14:55 35.119941 -115.556540 247 16083ft 175kts
24-Mar-17 14:56 35.100484 -115.610217 247 16096ft 175kts
24-Mar-17 14:57 35.081991 -115.661205 247 16115ft 175kts
24-Mar-17 14:58 35.062458 -115.714936 247 16122ft 176kts
24-Mar-17 14:59 35.045416 -115.770358 252 15082ft 160kts
24-Mar-17 15:00 35.029690 -115.818241 248 15798ft 155kts
24-Mar-17 15:01 35.012447 -115.866725 248 16069ft 159kts
24-Mar-17 15:02 34.989268 -115.931657 248 16062ft 157kts
24-Mar-17 15:03 34.977842 -115.963602 248 16066ft 157kts
24-Mar-17 15:04 34.954828 -116.027845 248 16073ft 157kts
24-Mar-17 15:05 34.943353 -116.059825 248 16077ft 157kts
24-Mar-17 15:06 34.925240 -116.107765 230 16077ft 162kts
24-Mar-17 15:07 34.888328 -116.133476 214 16095ft 166kts
24-Mar-17 15:08 34.848582 -116.161147 214 16100ft 168kts
24-Mar-17 15:09 34.808676 -116.189553 215 16093ft 169kts
24-Mar-17 15:10 34.768669 -116.218372 215 16085ft 169kts
24-Mar-17 15:11 34.728708 -116.247339 215 16077ft 169kts
24-Mar-17 15:12 34.688751 -116.276387 215 16056ft 170kts
24-Mar-17 15:13 34.648236 -116.305896 215 15497ft 174kts
24-Mar-17 15:14 34.607095 -116.335853 215 14805ft 176kts
24-Mar-17 15:15 34.565689 -116.365979 215 14110ft 177kts
24-Mar-17 15:16 34.523881 -116.395628 214 13413ft 176kts
24-Mar-17 15:17 34.481891 -116.425793 214 12707ft 175kts
24-Mar-17 15:18 34.440831 -116.455608 214 12011ft 175kts
24-Mar-17 15:19 34.399932 -116.485388 214 11312ft 173kts
24-Mar-17 15:20 34.359392 -116.514867 214 10607ft 172kts
24-Mar-17 15:21 34.318284 -116.544844 214 9913ft 172kts
24-Mar-17 15:22 34.283264 -116.570294 215 9325ft 120kts
24-Mar-17 15:23 34.263836 -116.600645 273 9323ft 127kts
24-Mar-17 15:24 34.264094 -116.643910 272 9333ft 122kts
24-Mar-17 15:25 34.264236 -116.677788 272 9309ft 107kts
24-Mar-17 15:26 34.264255 -116.713321 272 8920ft 89kts
24-Mar-17 15:27 34.264204 -116.740414 272 8490ft 80kts
24-Mar-17 15:28 34.264132 -116.767066 272 8075ft 80kts
24-Mar-17 15:29 34.264046 -116.793861 272 7658ft 82kts
24-Mar-17 15:30 34.264052 -116.822051 272 7336ft 87kts
24-Mar-17 15:31 34.263964 -116.849597 272 6756ft 75kts
24-Mar-17 15:32 34.263257 -116.855541 165 6752ft 8kts
24-Mar-17 15:33 34.263093 -116.855559 177 6752ft 0kts
24-Mar-17 15:34 34.263093 -116.855559 177 6752ft 0kts
24-Mar-17 15:35 34.263093 -116.855559 177 6752ft 0kts
24-Mar-17 15:36 34.263093 -116.855559 177 6752ft 0kts
24-Mar-17 15:37 34.263093 -116.855559 177 6752ft 0kts
24-Mar-17 15:38 34.263093 -116.855559 177 6752ft 0kts
24-Mar-17 15:39 34.263093 -116.855559 177 6752ft 0kts
24-Mar-17 15:40 34.263093 -116.855559 177 6752ft 0kts
24-Mar-17 15:41 34.263093 -116.855559 177 6752ft 0kts
24-Mar-17 15:42 34.263093 -116.855559 177 6752ft 0kts
24-Mar-17 15:43 34.263093 -116.855559 177 6752ft 0kts
24-Mar-17 15:44 34.263093 -116.855559 177 6752ft 0kts
24-Mar-17 15:45 34.263093 -116.855559 177 6752ft 0kts
24-Mar-17 15:46 34.263093 -116.855559 177 6752ft 0kts

Navigation Log

Ident Type
Flight plan parsing failed, navigation log unavailable